createdAt,value
2018-07-28T00:01:17.301Z,6.70
2018-07-28T00:03:44.872Z,5.50
2018-07-28T00:06:12.721Z,6.33
2018-07-28T00:08:41.129Z,6.27
2018-07-28T00:11:08.814Z,5.33
2018-07-28T00:13:36.552Z,5.57
2018-07-28T00:16:04.212Z,5.97
2018-07-28T00:18:31.897Z,5.57
2018-07-28T00:20:59.375Z,5.67
2018-07-28T00:23:27.666Z,5.53
2018-07-28T00:26:00.913Z,5.50
2018-07-28T00:28:28.427Z,5.63
2018-07-28T00:30:55.922Z,5.70
2018-07-28T00:33:23.467Z,6.27
2018-07-28T00:35:51.064Z,7.07
2018-07-28T00:38:18.640Z,5.93
2018-07-28T00:40:46.366Z,6.20
2018-07-28T00:43:14.016Z,6.80
2018-07-28T00:45:42.914Z,6.80
2018-07-28T00:48:10.601Z,6.53
2018-07-28T00:50:38.309Z,6.67
2018-07-28T00:53:06.785Z,6.43
2018-07-28T00:55:34.409Z,6.00
2018-07-28T00:58:02.040Z,6.47
2018-07-28T01:00:29.579Z,6.40
2018-07-28T01:02:57.165Z,5.90
2018-07-28T01:05:25.263Z,7.13
2018-07-28T01:07:52.966Z,6.07
2018-07-28T01:10:20.657Z,6.70
2018-07-28T01:12:48.318Z,6.40
2018-07-28T01:15:15.942Z,6.63
2018-07-28T01:17:43.690Z,5.97
2018-07-28T01:20:11.779Z,5.97
2018-07-28T01:22:40.290Z,5.60
2018-07-28T01:25:09.341Z,6.10
2018-07-28T01:27:37.046Z,5.90
2018-07-28T01:30:07.356Z,6.77
2018-07-28T01:32:34.990Z,6.20
2018-07-28T01:35:02.536Z,6.10
2018-07-28T01:37:30.062Z,7.20
2018-07-28T01:39:57.726Z,7.10
2018-07-28T01:42:25.371Z,6.90
2018-07-28T01:44:52.992Z,7.20
2018-07-28T01:47:20.627Z,6.43
2018-07-28T01:49:48.225Z,7.47
2018-07-28T02:05:20.966Z,6.53
2018-07-28T02:07:48.626Z,7.80
2018-07-28T02:10:16.311Z,7.00
2018-07-28T02:12:43.777Z,7.00
2018-07-28T02:15:11.306Z,7.10
2018-07-28T02:17:38.846Z,6.87
2018-07-28T02:20:07.422Z,7.40
2018-07-28T02:22:35.874Z,6.67
2018-07-28T02:25:05.287Z,8.10
2018-07-28T02:27:32.950Z,7.40
2018-07-28T02:30:00.602Z,6.73
2018-07-28T02:32:28.266Z,7.13
2018-07-28T02:34:55.902Z,7.23
2018-07-28T02:37:23.459Z,6.97
2018-07-28T02:39:51.092Z,7.97
2018-07-28T02:42:18.803Z,7.83
2018-07-28T02:44:47.056Z,8.10
2018-07-28T02:47:14.771Z,7.03
2018-07-28T02:49:42.248Z,7.40
2018-07-28T02:52:09.806Z,7.40
2018-07-28T02:54:38.002Z,7.60
2018-07-28T02:57:06.497Z,7.80
2018-07-28T02:59:35.658Z,7.50
2018-07-28T03:02:03.442Z,7.93
2018-07-28T03:04:30.957Z,7.67
2018-07-28T03:06:58.712Z,8.87
2018-07-28T03:09:26.333Z,7.67
2018-07-28T03:11:54.034Z,7.27
2018-07-28T03:14:21.659Z,7.47
2018-07-28T03:16:50.093Z,7.47
2018-07-28T03:19:17.693Z,7.20
2018-07-28T03:21:45.937Z,7.47
2018-07-28T03:24:13.552Z,8.00
2018-07-28T03:26:41.203Z,8.80
2018-07-28T03:29:08.995Z,8.47
2018-07-28T03:31:37.199Z,9.23
2018-07-28T03:34:05.064Z,7.67
2018-07-28T03:36:32.556Z,7.40
2018-07-28T03:39:00.211Z,8.00
2018-07-28T03:41:27.711Z,7.63
2018-07-28T03:43:55.369Z,7.20
2018-07-28T03:46:23.241Z,8.07
2018-07-28T03:48:50.887Z,6.80
2018-07-28T03:51:18.526Z,7.03
2018-07-28T03:53:46.241Z,7.83
2018-07-28T03:56:15.196Z,8.73
2018-07-28T03:58:42.801Z,7.57
2018-07-28T04:01:10.521Z,8.30
2018-07-28T04:03:38.151Z,8.30
2018-07-28T04:06:05.822Z,8.03
2018-07-28T04:08:33.484Z,7.73
2018-07-28T04:11:01.036Z,8.10
2018-07-28T04:13:28.652Z,8.20
2018-07-28T04:15:56.543Z,9.10
2018-07-28T04:18:24.718Z,8.77
2018-07-28T04:20:52.379Z,9.20
2018-07-28T04:23:19.926Z,8.83
2018-07-28T04:25:47.658Z,8.80
2018-07-28T04:28:15.283Z,7.80
2018-07-28T04:30:42.854Z,9.03
2018-07-28T04:33:10.476Z,7.13
2018-07-28T04:35:38.161Z,7.47
2018-07-28T04:38:06.327Z,7.53
2018-07-28T04:40:34.586Z,6.60
2018-07-28T04:43:02.276Z,8.40
2018-07-28T04:45:29.927Z,7.70
2018-07-28T04:47:59.007Z,7.10
2018-07-28T04:50:26.538Z,7.30
2018-07-28T04:52:54.057Z,7.70
2018-07-28T04:55:21.697Z,7.57
2018-07-28T04:57:49.308Z,7.87
2018-07-28T05:00:16.976Z,7.37
2018-07-28T05:02:44.632Z,7.30
2018-07-28T05:05:12.150Z,8.30
2018-07-28T05:07:39.786Z,7.70
2018-07-28T05:10:07.337Z,7.63
2018-07-28T05:12:35.037Z,7.60
2018-07-28T05:15:03.264Z,8.23
2018-07-28T05:17:30.902Z,8.30
2018-07-28T05:19:58.591Z,8.20
2018-07-28T05:22:26.158Z,8.13
2018-07-28T05:24:53.640Z,7.03
2018-07-28T05:27:21.374Z,7.73
2018-07-28T05:29:48.902Z,7.37
2018-07-28T05:32:16.417Z,6.77
2018-07-28T05:34:44.208Z,7.50
2018-07-28T05:37:11.756Z,6.87
2018-07-28T05:39:39.444Z,7.57
2018-07-28T05:42:07.105Z,7.47
2018-07-28T05:44:34.754Z,7.37
2018-07-28T05:47:02.270Z,7.43
2018-07-28T05:49:29.987Z,7.13
2018-07-28T05:51:57.586Z,8.13
2018-07-28T05:54:25.974Z,7.40
2018-07-28T05:56:53.709Z,6.60
2018-07-28T05:59:21.259Z,7.53
2018-07-28T06:01:48.938Z,6.00
2018-07-28T06:04:16.572Z,5.87
2018-07-28T06:06:44.802Z,6.00
2018-07-28T06:09:12.317Z,5.93
2018-07-28T06:11:40.209Z,5.50
2018-07-28T06:14:07.902Z,5.47
2018-07-28T06:16:36.370Z,5.70
2018-07-28T06:19:04.618Z,5.23
2018-07-28T06:21:32.432Z,5.23
2018-07-28T06:24:00.094Z,4.97
2018-07-28T06:26:28.348Z,5.10
2018-07-28T06:28:56.036Z,5.10
2018-07-28T06:31:23.820Z,4.87
2018-07-28T06:33:51.338Z,5.20
2018-07-28T06:36:19.368Z,4.90
2018-07-28T06:38:47.760Z,4.53
2018-07-28T06:41:15.423Z,5.07
2018-07-28T06:43:43.268Z,5.00
2018-07-28T06:46:11.624Z,4.63
2018-07-28T06:48:39.413Z,4.10
2018-07-28T06:51:07.684Z,4.40
2018-07-28T06:53:36.081Z,4.30
2018-07-28T06:56:03.603Z,4.50
2018-07-28T06:58:31.440Z,5.33
2018-07-28T07:00:59.775Z,4.90
2018-07-28T07:03:27.402Z,8.00
2018-07-28T07:05:55.050Z,9.10
2018-07-28T07:08:22.621Z,9.57
2018-07-28T07:10:50.218Z,9.97
2018-07-28T07:13:17.987Z,10.57
2018-07-28T07:15:45.644Z,9.30
2018-07-28T07:18:13.173Z,10.30
2018-07-28T07:20:40.841Z,10.07
2018-07-28T07:23:08.612Z,9.63
2018-07-28T07:25:36.257Z,8.30
2018-07-28T07:28:03.969Z,7.47
2018-07-28T07:30:31.546Z,7.80
2018-07-28T07:33:00.036Z,6.73
2018-07-28T07:35:27.648Z,5.37
2018-07-28T07:37:55.944Z,4.70
2018-07-28T07:40:24.643Z,5.57
2018-07-28T07:42:53.048Z,5.00
2018-07-28T07:45:20.860Z,5.53
2018-07-28T07:47:48.552Z,5.77
2018-07-28T07:50:16.204Z,5.50
2018-07-28T07:52:43.984Z,5.00
2018-07-28T07:55:11.718Z,5.30
2018-07-28T07:57:39.558Z,4.67
2018-07-28T08:00:07.769Z,4.77
2018-07-28T08:02:35.368Z,5.40
2018-07-28T08:05:03.141Z,5.37
2018-07-28T08:07:30.910Z,5.17
2018-07-28T08:09:58.694Z,4.60
2018-07-28T08:12:26.355Z,4.93
2018-07-28T08:14:54.038Z,5.30
2018-07-28T08:17:21.618Z,5.10
2018-07-28T08:19:49.354Z,4.57
2018-07-28T08:22:16.909Z,4.60
2018-07-28T08:24:44.633Z,5.03
2018-07-28T08:27:12.280Z,4.67
2018-07-28T08:29:40.049Z,5.10
2018-07-28T08:32:07.776Z,4.43
2018-07-28T08:34:36.047Z,4.97
2018-07-28T08:37:03.699Z,5.00
2018-07-28T08:39:31.374Z,5.40
2018-07-28T08:41:58.971Z,4.80
2018-07-28T08:44:26.815Z,4.70
2018-07-28T08:46:54.578Z,4.60
2018-07-28T08:49:22.413Z,4.47
2018-07-28T08:51:50.311Z,4.23
2018-07-28T08:54:17.923Z,4.10
2018-07-28T08:56:46.274Z,4.53
2018-07-28T08:59:13.913Z,4.07
2018-07-28T09:01:42.653Z,4.83
2018-07-28T09:04:10.441Z,4.30
2018-07-28T09:06:38.296Z,4.93
2018-07-28T09:09:07.764Z,4.70
2018-07-28T09:11:35.444Z,5.10
2018-07-28T09:14:03.215Z,4.60
2018-07-28T09:16:31.058Z,4.80
2018-07-28T09:18:58.674Z,4.43
2018-07-28T09:21:26.471Z,4.67
2018-07-28T09:23:54.109Z,4.50
2018-07-28T09:26:21.769Z,3.93
2018-07-28T09:28:49.423Z,4.20
2018-07-28T09:31:16.970Z,4.30
2018-07-28T09:33:45.494Z,4.67
2018-07-28T09:36:13.194Z,4.17
2018-07-28T09:38:40.968Z,4.37
2018-07-28T09:41:09.269Z,4.13
2018-07-28T09:43:37.090Z,4.50
2018-07-28T09:46:05.179Z,3.83
2018-07-28T09:48:32.974Z,4.07
2018-07-28T09:51:01.456Z,4.10
2018-07-28T09:53:29.219Z,4.50
2018-07-28T09:55:56.906Z,4.40
2018-07-28T09:58:24.816Z,3.93
2018-07-28T10:00:58.599Z,4.73
2018-07-28T10:03:26.846Z,4.17
2018-07-28T10:05:54.643Z,3.77
2018-07-28T10:08:22.351Z,4.30
2018-07-28T10:10:49.945Z,4.33
2018-07-28T10:13:18.346Z,3.70
2018-07-28T10:15:46.001Z,3.70
2018-07-28T10:18:13.750Z,4.03
2018-07-28T10:20:41.473Z,3.90
2018-07-28T10:23:09.515Z,3.53
2018-07-28T10:25:37.170Z,3.40
2018-07-28T10:28:05.059Z,3.77
2018-07-28T10:30:35.896Z,3.43
2018-07-28T10:33:03.569Z,3.00
2018-07-28T10:35:31.211Z,2.60
2018-07-28T10:37:58.916Z,2.40
2018-07-28T10:40:26.570Z,2.00
2018-07-28T10:42:54.325Z,2.60
2018-07-28T10:45:21.873Z,2.30
2018-07-28T10:47:49.416Z,2.17
2018-07-28T10:50:17.081Z,2.00
2018-07-28T10:52:44.791Z,2.40
2018-07-28T10:55:12.532Z,2.10
2018-07-28T10:57:40.229Z,2.40
2018-07-28T11:00:08.227Z,2.50
2018-07-28T11:02:35.884Z,2.40
2018-07-28T11:05:04.169Z,2.40
2018-07-28T11:07:31.846Z,2.30
2018-07-28T11:09:59.590Z,2.40
2018-07-28T11:12:27.254Z,2.63
2018-07-28T11:14:54.950Z,2.60
2018-07-28T11:17:22.589Z,2.80
2018-07-28T11:19:50.338Z,2.70
2018-07-28T11:22:17.990Z,2.10
2018-07-28T11:24:45.691Z,2.20
2018-07-28T11:27:13.404Z,2.40
2018-07-28T11:29:41.124Z,2.65
2018-07-28T11:32:14.157Z,2.90
2018-07-28T11:34:53.516Z,2.60
2018-07-28T11:38:03.796Z,2.20
2018-07-28T11:40:44.239Z,2.40
2018-07-28T11:43:23.259Z,2.20
2018-07-28T11:45:51.030Z,2.72
2018-07-28T11:48:18.791Z,2.90
2018-07-28T11:50:46.606Z,2.67
2018-07-28T11:53:14.254Z,2.70
2018-07-28T11:55:41.965Z,2.90
2018-07-28T11:58:09.558Z,3.17
2018-07-28T12:00:37.284Z,3.52
2018-07-28T12:03:05.192Z,3.00
2018-07-28T12:05:32.897Z,3.42
2018-07-28T12:08:00.591Z,3.12
2018-07-28T12:10:28.295Z,3.53
2018-07-28T12:12:56.023Z,3.45
2018-07-28T12:15:23.700Z,3.33
2018-07-28T12:17:51.396Z,3.50
2018-07-28T12:20:19.064Z,3.50
2018-07-28T12:22:46.734Z,3.60
2018-07-28T12:25:14.484Z,3.90
2018-07-28T12:27:42.139Z,3.65
2018-07-28T12:30:10.726Z,4.80
2018-07-28T12:32:39.258Z,4.08
2018-07-28T12:35:07.026Z,4.40
2018-07-28T12:37:34.834Z,4.60
2018-07-28T12:40:02.539Z,4.60
2018-07-28T12:42:30.276Z,4.40
2018-07-28T12:44:58.020Z,4.33
2018-07-28T12:47:25.741Z,3.93
2018-07-28T12:49:53.485Z,4.40
2018-07-28T12:52:21.035Z,4.23
2018-07-28T12:54:48.849Z,4.60
2018-07-28T12:57:16.506Z,4.60
2018-07-28T12:59:44.044Z,4.67
2018-07-28T13:02:11.701Z,4.60
2018-07-28T13:04:39.270Z,4.30
2018-07-28T13:07:06.954Z,4.37
2018-07-28T13:09:34.719Z,4.30
2018-07-28T13:12:02.856Z,3.90
2018-07-28T13:14:30.561Z,4.57
2018-07-28T13:16:58.351Z,4.50
2018-07-28T13:19:26.041Z,4.60
2018-07-28T13:21:53.759Z,4.53
2018-07-28T13:24:21.421Z,4.50
2018-07-28T13:26:49.173Z,4.37
2018-07-28T13:29:16.885Z,3.90
2018-07-28T13:31:44.640Z,4.80
2018-07-28T13:34:12.333Z,4.37
2018-07-28T13:36:40.094Z,4.20
2018-07-28T13:39:08.242Z,4.70
2018-07-28T13:41:36.041Z,4.23
2018-07-28T13:44:03.697Z,4.53
2018-07-28T13:46:31.449Z,4.73
2018-07-28T13:48:59.138Z,5.27
2018-07-28T13:51:26.807Z,4.43
2018-07-28T13:53:54.487Z,4.37
2018-07-28T13:56:22.218Z,5.03
2018-07-28T13:58:49.875Z,4.80
2018-07-28T14:01:17.581Z,8.90
2018-07-28T14:03:45.324Z,5.00
2018-07-28T14:06:13.136Z,5.60
2018-07-28T14:08:40.784Z,4.80
2018-07-28T14:11:08.557Z,5.00
2018-07-28T14:13:36.400Z,4.70
2018-07-28T14:16:04.439Z,4.70
2018-07-28T14:18:32.476Z,4.43
2018-07-28T14:20:59.899Z,4.63
2018-07-28T14:23:27.660Z,4.20
2018-07-28T14:25:55.150Z,4.83
2018-07-28T14:28:22.850Z,4.53
2018-07-28T14:30:50.614Z,4.73
2018-07-28T14:33:18.314Z,4.50
2018-07-28T14:35:46.098Z,4.67
2018-07-28T14:38:13.770Z,4.47
2018-07-28T14:40:41.460Z,4.10
2018-07-28T14:43:09.196Z,3.97
2018-07-28T14:45:36.935Z,4.37
2018-07-28T14:48:04.798Z,4.53
2018-07-28T14:50:32.402Z,4.40
2018-07-28T14:53:00.412Z,4.10
2018-07-28T14:55:28.050Z,4.30
2018-07-28T14:57:55.725Z,4.00
2018-07-28T15:00:23.540Z,3.73
2018-07-28T15:02:51.382Z,4.40
2018-07-28T15:05:19.067Z,4.07
2018-07-28T15:07:46.835Z,4.70
2018-07-28T15:10:14.623Z,4.30
2018-07-28T15:12:42.316Z,4.03
2018-07-28T15:15:10.019Z,3.90
2018-07-28T15:17:37.731Z,4.40
2018-07-28T15:20:05.551Z,4.43
2018-07-28T15:22:33.245Z,4.10
2018-07-28T15:25:01.060Z,4.17
2018-07-28T15:27:28.840Z,4.60
2018-07-28T15:29:56.592Z,4.47
2018-07-28T15:32:24.287Z,4.27
2018-07-28T15:34:51.995Z,6.30
2018-07-28T15:37:19.641Z,4.63
2018-07-28T15:39:47.367Z,4.50
2018-07-28T15:42:15.091Z,4.27
2018-07-28T15:44:42.947Z,4.53
2018-07-28T15:47:10.707Z,4.80
2018-07-28T15:49:38.388Z,4.50
2018-07-28T15:52:05.979Z,4.67
2018-07-28T15:54:33.673Z,4.90
2018-07-28T15:57:01.372Z,4.43
2018-07-28T15:59:29.049Z,4.87
2018-07-28T16:01:56.765Z,5.07
2018-07-28T16:04:24.414Z,4.47
2018-07-28T16:06:52.067Z,4.40
2018-07-28T16:09:19.835Z,5.47
2018-07-28T16:11:47.526Z,4.53
2018-07-28T16:14:15.077Z,4.67
2018-07-28T16:16:42.655Z,4.67
2018-07-28T16:19:10.330Z,4.53
2018-07-28T16:21:38.118Z,4.93
2018-07-28T16:24:05.925Z,5.07
2018-07-28T16:26:33.545Z,4.80
2018-07-28T16:29:01.201Z,4.60
2018-07-28T16:31:29.932Z,4.93
2018-07-28T16:33:57.722Z,5.03
2018-07-28T16:36:26.536Z,5.17
2018-07-28T16:38:54.221Z,5.77
2018-07-28T16:41:21.930Z,4.73
2018-07-28T16:43:49.698Z,5.10
2018-07-28T16:46:17.416Z,5.17
2018-07-28T16:48:45.159Z,5.10
2018-07-28T16:51:12.749Z,5.40
2018-07-28T16:53:40.458Z,5.80
2018-07-28T16:56:08.131Z,5.97
2018-07-28T16:58:35.800Z,5.70
2018-07-28T17:01:04.073Z,6.30
2018-07-28T17:03:31.851Z,5.77
2018-07-28T17:05:59.589Z,6.17
2018-07-28T17:08:27.161Z,5.60
2018-07-28T17:10:54.882Z,5.60
2018-07-28T17:13:22.610Z,6.20
2018-07-28T17:15:50.308Z,6.13
2018-07-28T17:18:17.871Z,5.80
2018-07-28T17:20:45.519Z,5.50
2018-07-28T17:23:13.227Z,5.70
2018-07-28T17:25:40.773Z,5.90
2018-07-28T17:28:08.433Z,5.83
2018-07-28T17:30:36.363Z,6.20
2018-07-28T17:33:04.126Z,6.30
2018-07-28T17:35:31.790Z,6.07
2018-07-28T17:37:59.441Z,6.20
2018-07-28T17:40:26.976Z,6.57
2018-07-28T17:42:54.522Z,6.33
2018-07-28T17:45:22.116Z,5.80
2018-07-28T17:47:49.722Z,6.30
2018-07-28T17:50:17.465Z,6.10
2018-07-28T17:52:45.212Z,6.57
2018-07-28T17:55:12.968Z,6.47
2018-07-28T17:57:40.742Z,6.20
2018-07-28T18:00:09.067Z,5.93
2018-07-28T18:02:36.902Z,6.03
2018-07-28T18:05:05.480Z,6.53
2018-07-28T18:07:33.330Z,6.57
2018-07-28T18:10:00.907Z,6.20
2018-07-28T18:12:28.751Z,6.17
2018-07-28T18:14:56.612Z,5.80
2018-07-28T18:17:24.229Z,6.50
2018-07-28T18:19:52.014Z,6.37
2018-07-28T18:22:20.048Z,6.13
2018-07-28T18:24:47.864Z,6.57
2018-07-28T18:27:15.497Z,5.97
2018-07-28T18:29:43.266Z,6.20
2018-07-28T18:32:11.008Z,6.53
2018-07-28T18:34:38.766Z,6.53
2018-07-28T18:37:06.658Z,6.40
2018-07-28T18:39:34.317Z,5.67
2018-07-28T18:42:01.982Z,6.63
2018-07-28T18:44:29.620Z,5.80
2018-07-28T18:46:57.425Z,6.13
2018-07-28T18:49:25.191Z,6.30
2018-07-28T18:51:52.963Z,6.90
2018-07-28T18:54:20.834Z,5.90
2018-07-28T18:56:48.695Z,6.90
2018-07-28T18:59:16.511Z,6.70
2018-07-28T19:01:44.242Z,6.33
2018-07-28T19:04:12.017Z,6.00
2018-07-28T19:06:39.642Z,6.10
2018-07-28T19:09:13.164Z,5.70
2018-07-28T19:11:41.619Z,6.43
2018-07-28T19:14:15.049Z,6.70
2018-07-28T19:16:52.163Z,5.93
2018-07-28T19:19:19.932Z,5.57
2018-07-28T19:21:47.965Z,5.93
2018-07-28T19:24:15.692Z,5.30
2018-07-28T19:26:44.577Z,5.70
2018-07-28T19:29:17.932Z,5.93
2018-07-28T19:31:45.802Z,6.33
2018-07-28T19:34:13.502Z,5.40
2018-07-28T19:36:46.829Z,6.00
2018-07-28T19:39:14.571Z,5.57
2018-07-28T19:41:48.578Z,6.07
2018-07-28T19:44:16.337Z,5.67
2018-07-28T19:46:44.113Z,6.30
2018-07-28T19:49:11.836Z,6.03
2018-07-28T19:51:39.686Z,6.27
2018-07-28T19:54:07.525Z,6.33
2018-07-28T19:56:35.278Z,6.27
2018-07-28T19:59:03.583Z,5.67
2018-07-28T20:01:31.403Z,6.20
2018-07-28T20:03:59.182Z,5.90
2018-07-28T20:06:26.954Z,5.87
2018-07-28T20:08:54.829Z,5.87
2018-07-28T20:11:22.542Z,5.93
2018-07-28T20:13:50.357Z,6.37
2018-07-28T20:16:18.087Z,5.90
2018-07-28T20:18:45.924Z,5.53
2018-07-28T20:21:13.689Z,5.80
2018-07-28T20:23:41.272Z,5.83
2018-07-28T20:26:10.042Z,6.50
2018-07-28T20:28:38.236Z,7.07
2018-07-28T20:31:06.470Z,5.90
2018-07-28T20:33:35.528Z,5.93
2018-07-28T20:36:04.762Z,5.93
2018-07-28T20:38:32.537Z,5.33
2018-07-28T20:41:00.694Z,5.83
2018-07-28T20:43:28.799Z,5.70
2018-07-28T20:45:56.783Z,5.40
2018-07-28T20:48:25.284Z,5.63
2018-07-28T20:50:53.612Z,6.00
2018-07-28T20:53:21.724Z,5.50
2018-07-28T20:55:50.095Z,6.03
2018-07-28T20:58:19.312Z,5.97
2018-07-28T21:00:48.459Z,5.83
2018-07-28T21:03:17.855Z,5.83
2018-07-28T21:05:46.072Z,5.70
2018-07-28T21:08:14.849Z,6.40
2018-07-28T21:10:43.247Z,5.80
2018-07-28T21:13:11.030Z,5.47
2018-07-28T21:15:38.724Z,6.57
2018-07-28T21:18:07.044Z,5.80
2018-07-28T21:20:36.653Z,5.47
2018-07-28T21:23:04.850Z,6.57
2018-07-28T21:25:33.559Z,6.30
2018-07-28T21:28:01.869Z,6.97
2018-07-28T21:30:30.408Z,6.03
2018-07-28T21:32:58.412Z,6.30
2018-07-28T21:35:27.058Z,6.67
2018-07-28T21:37:54.597Z,6.07
2018-07-28T21:40:23.534Z,6.80
2018-07-28T21:42:51.173Z,7.87
2018-07-28T21:45:18.875Z,6.40
2018-07-28T21:47:47.282Z,7.30
2018-07-28T21:50:15.044Z,6.83
2018-07-28T21:52:42.826Z,7.20
2018-07-28T21:55:12.020Z,6.97
2018-07-28T21:57:39.738Z,7.93
2018-07-28T22:00:09.345Z,7.13
2018-07-28T22:02:38.245Z,7.13
2018-07-28T22:05:06.866Z,7.70
2018-07-28T22:07:34.558Z,7.70
2018-07-28T22:10:03.068Z,6.80
2018-07-28T22:12:32.288Z,7.70
2018-07-28T22:15:00.229Z,7.30
2018-07-28T22:17:28.652Z,7.13
2018-07-28T22:19:56.612Z,6.87
2018-07-28T22:22:25.435Z,6.50
2018-07-28T22:24:53.873Z,7.10
2018-07-28T22:27:22.784Z,7.27
2018-07-28T22:29:50.688Z,7.60
2018-07-28T22:32:18.306Z,8.03
2018-07-28T22:34:45.972Z,7.83
2018-07-28T22:37:13.511Z,8.20
2018-07-28T22:39:41.287Z,8.40
2018-07-28T22:42:08.917Z,8.47
2018-07-28T22:44:36.702Z,9.10
2018-07-28T22:47:04.409Z,8.27
2018-07-28T22:49:31.967Z,8.90
2018-07-28T22:51:59.664Z,8.27
2018-07-28T22:54:27.387Z,7.43
2018-07-28T22:56:55.073Z,8.83
2018-07-28T22:59:22.856Z,8.47
2018-07-28T23:01:50.419Z,8.93
2018-07-28T23:04:17.958Z,7.63
2018-07-28T23:06:45.703Z,8.20
2018-07-28T23:09:13.331Z,8.40
2018-07-28T23:11:41.009Z,8.10
2018-07-28T23:14:09.200Z,7.90
2018-07-28T23:16:36.899Z,8.50
2018-07-28T23:19:04.594Z,9.07
2018-07-28T23:21:32.142Z,8.47
2018-07-28T23:23:59.802Z,8.77
2018-07-28T23:26:27.547Z,6.87
2018-07-28T23:28:55.219Z,8.23
2018-07-28T23:31:22.765Z,8.40
2018-07-28T23:33:50.417Z,8.67
2018-07-28T23:36:18.138Z,7.23
2018-07-28T23:38:45.762Z,8.90
2018-07-28T23:41:13.398Z,8.10
2018-07-28T23:43:41.023Z,9.90
2018-07-28T23:46:08.658Z,8.30
2018-07-28T23:48:36.343Z,8.07
2018-07-28T23:51:03.917Z,9.67
2018-07-28T23:53:31.533Z,9.83
2018-07-28T23:55:59.093Z,10.00
2018-07-28T23:58:26.769Z,9.63
